createdAt,value
2017-12-28T00:00:13.129Z,0
2017-12-28T00:01:12.320Z,0
2017-12-28T00:02:12.552Z,0
2017-12-28T00:03:12.804Z,0
2017-12-28T00:04:12.785Z,0
2017-12-28T00:05:12.754Z,0
2017-12-28T00:06:12.743Z,0
2017-12-28T00:07:12.983Z,0
2017-12-28T00:08:12.966Z,0
2017-12-28T00:09:12.673Z,0
2017-12-28T00:10:12.130Z,0
2017-12-28T00:11:12.106Z,0
2017-12-28T00:12:12.342Z,0
2017-12-28T00:13:12.332Z,0
2017-12-28T00:14:12.573Z,0
2017-12-28T00:15:13.010Z,0
2017-12-28T00:16:12.268Z,0
2017-12-28T00:17:12.768Z,0
2017-12-28T00:18:12.538Z,0
2017-12-28T00:19:12.464Z,0
2017-12-28T00:20:12.180Z,0
2017-12-28T00:21:12.158Z,0
2017-12-28T00:22:12.400Z,0
2017-12-28T00:23:12.374Z,0
2017-12-28T00:24:12.087Z,0
2017-12-28T00:25:12.333Z,0
2017-12-28T00:26:12.312Z,0
2017-12-28T00:27:11.762Z,0
2017-12-28T00:28:12.263Z,0
2017-12-28T00:29:12.255Z,0
2017-12-28T00:30:11.700Z,0
2017-12-28T00:31:11.940Z,0
2017-12-28T00:32:11.664Z,0
2017-12-28T00:33:11.641Z,0
2017-12-28T00:34:12.141Z,0
2017-12-28T00:35:12.122Z,0
2017-12-28T00:36:12.104Z,0
2017-12-28T00:37:12.337Z,0
2017-12-28T00:38:12.062Z,0
2017-12-28T00:39:11.767Z,0
2017-12-28T00:40:12.036Z,0
2017-12-28T00:41:12.040Z,0
2017-12-28T00:42:11.738Z,0
2017-12-28T00:43:11.685Z,0
2017-12-28T00:44:11.395Z,0
2017-12-28T00:45:11.639Z,0
2017-12-28T00:46:12.160Z,0
2017-12-28T00:47:12.122Z,0
2017-12-28T00:48:11.314Z,0
2017-12-28T00:49:11.861Z,0
2017-12-28T00:50:12.064Z,0
2017-12-28T00:51:12.035Z,0
2017-12-28T00:52:12.030Z,0
2017-12-28T00:53:11.732Z,0
2017-12-28T00:54:11.740Z,0
2017-12-28T00:55:11.946Z,0
2017-12-28T00:56:11.138Z,0
2017-12-28T00:57:11.382Z,0
2017-12-28T00:58:11.358Z,0
2017-12-28T00:59:11.342Z,0
2017-12-28T01:00:11.609Z,0
2017-12-28T01:01:11.293Z,0
2017-12-28T01:02:11.276Z,0
2017-12-28T01:03:11.512Z,0
2017-12-28T01:04:11.547Z,0
2017-12-28T01:05:11.476Z,0
2017-12-28T01:06:11.181Z,0
2017-12-28T01:07:11.422Z,0
2017-12-28T01:08:11.410Z,0
2017-12-28T01:09:11.648Z,0
2017-12-28T01:10:11.104Z,0
2017-12-28T01:11:11.599Z,0
2017-12-28T01:12:11.061Z,0
2017-12-28T01:13:11.037Z,0
2017-12-28T01:14:11.275Z,0
2017-12-28T01:15:10.988Z,0
2017-12-28T01:16:10.973Z,0
2017-12-28T01:17:10.942Z,0
2017-12-28T01:18:10.925Z,0
2017-12-28T01:19:11.433Z,0
2017-12-28T01:20:11.408Z,0
2017-12-28T01:21:11.386Z,0
2017-12-28T01:22:10.842Z,0
2017-12-28T01:23:10.815Z,0
2017-12-28T01:24:11.318Z,0
2017-12-28T01:25:11.033Z,0
2017-12-28T01:26:10.755Z,0
2017-12-28T01:27:10.990Z,0
2017-12-28T01:28:10.439Z,0
2017-12-28T01:29:10.951Z,0
2017-12-28T01:30:10.929Z,0
2017-12-28T01:31:10.909Z,0
2017-12-28T01:32:11.201Z,0
2017-12-28T01:33:10.867Z,0
2017-12-28T01:34:10.574Z,0
2017-12-28T01:35:10.555Z,0
2017-12-28T01:36:10.805Z,0
2017-12-28T01:37:11.038Z,0
2017-12-28T01:38:10.753Z,0
2017-12-28T01:39:10.466Z,0
2017-12-28T01:40:10.710Z,0
2017-12-28T01:41:10.683Z,0
2017-12-28T01:42:10.675Z,0
2017-12-28T01:43:10.637Z,0
2017-12-28T01:44:10.090Z,0
2017-12-28T01:45:10.075Z,0
2017-12-28T01:46:10.841Z,0
2017-12-28T01:47:10.557Z,0
2017-12-28T01:48:10.008Z,0
2017-12-28T01:49:10.521Z,0
2017-12-28T01:50:10.750Z,0
2017-12-28T01:51:09.938Z,0
2017-12-28T01:52:10.448Z,0
2017-12-28T01:53:10.422Z,0
2017-12-28T01:54:10.665Z,0
2017-12-28T01:55:10.376Z,0
2017-12-28T01:56:10.094Z,0
2017-12-28T01:57:10.072Z,0
2017-12-28T01:58:10.316Z,0
2017-12-28T01:59:10.300Z,0
2017-12-28T02:00:09.751Z,0
2017-12-28T02:01:10.523Z,0
2017-12-28T02:02:09.959Z,0
2017-12-28T02:03:09.953Z,0
2017-12-28T02:04:10.185Z,0
2017-12-28T02:05:10.424Z,0
2017-12-28T02:06:09.608Z,0
2017-12-28T02:07:09.593Z,0
2017-12-28T02:08:10.096Z,0
2017-12-28T02:09:10.077Z,0
2017-12-28T02:10:09.793Z,0
2017-12-28T02:11:09.499Z,0
2017-12-28T02:12:09.741Z,0
2017-12-28T02:13:09.994Z,0
2017-12-28T02:14:09.728Z,0
2017-12-28T02:15:10.151Z,0
2017-12-28T02:16:09.919Z,0
2017-12-28T02:17:09.626Z,0
2017-12-28T02:18:09.610Z,0
2017-12-28T02:19:09.330Z,0
2017-12-28T02:20:09.822Z,0
2017-12-28T02:21:09.285Z,0
2017-12-28T02:22:09.806Z,0
2017-12-28T02:23:09.760Z,0
2017-12-28T02:24:10.014Z,0
2017-12-28T02:25:09.454Z,0
2017-12-28T02:26:09.698Z,0
2017-12-28T02:27:09.668Z,0
2017-12-28T02:28:09.656Z,0
2017-12-28T02:29:09.368Z,0
2017-12-28T02:30:09.619Z,0
2017-12-28T02:31:09.582Z,0
2017-12-28T02:32:09.569Z,0
2017-12-28T02:33:09.817Z,0
2017-12-28T02:34:09.526Z,0
2017-12-28T02:35:09.498Z,0
2017-12-28T02:36:09.485Z,0
2017-12-28T02:37:09.193Z,0
2017-12-28T02:38:09.434Z,0
2017-12-28T02:39:09.407Z,0
2017-12-28T02:40:09.406Z,0
2017-12-28T02:41:09.622Z,0
2017-12-28T02:42:09.078Z,0
2017-12-28T02:43:09.052Z,0
2017-12-28T02:44:09.564Z,0
2017-12-28T02:45:09.281Z,0
2017-12-28T02:46:08.726Z,0
2017-12-28T02:47:09.232Z,0
2017-12-28T02:48:09.207Z,0
2017-12-28T02:49:09.187Z,0
2017-12-28T02:50:09.163Z,0
2017-12-28T02:51:08.881Z,0
2017-12-28T02:52:09.121Z,0
2017-12-28T02:53:08.567Z,0
2017-12-28T02:54:09.078Z,0
2017-12-28T02:55:09.072Z,0
2017-12-28T02:56:09.040Z,0
2017-12-28T02:57:09.271Z,0
2017-12-28T02:58:08.981Z,0
2017-12-28T02:59:08.711Z,0
2017-12-28T03:00:09.204Z,0
2017-12-28T03:01:08.917Z,0
2017-12-28T03:02:08.372Z,0
2017-12-28T03:03:09.141Z,0
2017-12-28T03:04:08.323Z,0
2017-12-28T03:05:09.089Z,0
2017-12-28T03:06:09.075Z,0
2017-12-28T03:07:08.257Z,0
2017-12-28T03:08:08.497Z,0
2017-12-28T03:09:08.478Z,0
2017-12-28T03:10:08.716Z,0
2017-12-28T03:11:08.951Z,0
2017-12-28T03:12:08.404Z,0
2017-12-28T03:13:08.382Z,0
2017-12-28T03:14:08.365Z,0
2017-12-28T03:15:08.598Z,0
2017-12-28T03:16:08.582Z,0
2017-12-28T03:17:08.297Z,0
2017-12-28T03:18:08.272Z,0
2017-12-28T03:19:08.778Z,0
2017-12-28T03:20:08.491Z,0
2017-12-28T03:21:08.474Z,0
2017-12-28T03:22:08.453Z,0
2017-12-28T03:23:08.471Z,0
2017-12-28T03:24:08.404Z,0
2017-12-28T03:25:08.646Z,0
2017-12-28T03:26:08.094Z,0
2017-12-28T03:27:07.809Z,0
2017-12-28T03:28:08.317Z,0
2017-12-28T03:29:08.293Z,0
2017-12-28T03:30:08.543Z,0
2017-12-28T03:31:08.252Z,0
2017-12-28T03:32:07.694Z,0
2017-12-28T03:33:07.929Z,0
2017-12-28T03:34:07.918Z,0
2017-12-28T03:35:07.630Z,0
2017-12-28T03:36:08.130Z,0
2017-12-28T03:37:08.373Z,0
2017-12-28T03:38:07.825Z,0
2017-12-28T03:39:08.333Z,0
2017-12-28T03:40:07.779Z,0
2017-12-28T03:41:08.021Z,0
2017-12-28T03:42:08.009Z,0
2017-12-28T03:43:07.982Z,0
2017-12-28T03:44:07.959Z,0
2017-12-28T03:45:07.666Z,0
2017-12-28T03:46:08.182Z,0
2017-12-28T03:47:07.884Z,0
2017-12-28T03:48:07.604Z,0
2017-12-28T03:49:07.576Z,0
2017-12-28T03:50:08.090Z,0
2017-12-28T03:51:07.847Z,0
2017-12-28T03:52:08.033Z,0
2017-12-28T03:53:07.750Z,0
2017-12-28T03:54:07.724Z,0
2017-12-28T03:55:07.708Z,0
2017-12-28T03:56:07.680Z,0
2017-12-28T03:57:07.921Z,0
2017-12-28T03:58:07.894Z,0
2017-12-28T03:59:07.352Z,0
2017-12-28T04:00:07.359Z,0
2017-12-28T04:01:07.576Z,0
2017-12-28T04:02:07.827Z,0
2017-12-28T04:03:07.258Z,0
2017-12-28T04:04:07.776Z,0
2017-12-28T04:05:07.220Z,0
2017-12-28T04:06:07.460Z,0
2017-12-28T04:07:07.175Z,0
2017-12-28T04:08:07.148Z,0
2017-12-28T04:09:07.389Z,0
2017-12-28T04:10:07.107Z,0
2017-12-28T04:11:07.347Z,0
2017-12-28T04:12:07.589Z,0
2017-12-28T04:13:07.035Z,0
2017-12-28T04:14:07.586Z,0
2017-12-28T04:15:07.530Z,0
2017-12-28T04:16:07.173Z,0
2017-12-28T04:17:07.472Z,0
2017-12-28T04:18:07.465Z,0
2017-12-28T04:19:06.645Z,0
2017-12-28T04:20:07.143Z,0
2017-12-28T04:21:06.855Z,0
2017-12-28T04:22:07.098Z,0
2017-12-28T04:23:06.547Z,0
2017-12-28T04:24:06.791Z,0
2017-12-28T04:25:07.037Z,0
2017-12-28T04:26:06.749Z,0
2017-12-28T04:27:06.991Z,0
2017-12-28T04:28:07.258Z,0
2017-12-28T04:29:06.694Z,0
2017-12-28T04:30:06.669Z,0
2017-12-28T04:31:06.896Z,0
2017-12-28T04:32:07.132Z,0
2017-12-28T04:33:07.111Z,0
2017-12-28T04:34:06.877Z,0
2017-12-28T04:35:06.546Z,0
2017-12-28T04:36:06.519Z,0
2017-12-28T04:37:06.234Z,0
2017-12-28T04:38:06.746Z,0
2017-12-28T04:39:06.189Z,0
2017-12-28T04:40:06.692Z,0
2017-12-28T04:41:06.933Z,0
2017-12-28T04:42:06.384Z,0
2017-12-28T04:43:06.101Z,0
2017-12-28T04:44:06.870Z,0
2017-12-28T04:45:06.587Z,0
2017-12-28T04:46:06.551Z,0
2017-12-28T04:47:06.537Z,0
2017-12-28T04:48:06.252Z,0
2017-12-28T04:49:06.228Z,0
2017-12-28T04:50:06.470Z,0
2017-12-28T04:51:06.438Z,0
2017-12-28T04:52:06.152Z,0
2017-12-28T04:53:06.143Z,0
2017-12-28T04:54:06.374Z,0
2017-12-28T04:55:06.089Z,0
2017-12-28T04:56:06.326Z,0
2017-12-28T04:57:06.323Z,0
2017-12-28T04:58:06.276Z,0
2017-12-28T04:59:06.534Z,0
2017-12-28T05:00:05.715Z,0
2017-12-28T05:01:05.693Z,0
2017-12-28T05:02:06.189Z,0
2017-12-28T05:03:05.909Z,0
2017-12-28T05:04:06.148Z,0
2017-12-28T05:05:05.860Z,0
2017-12-28T05:06:05.576Z,0
2017-12-28T05:07:05.814Z,0
2017-12-28T05:08:06.055Z,0
2017-12-28T05:09:06.295Z,0
2017-12-28T05:10:06.275Z,0
2017-12-28T05:11:05.992Z,0
2017-12-28T05:12:05.698Z,0
2017-12-28T05:13:05.681Z,0
2017-12-28T05:14:05.696Z,0
2017-12-28T05:15:05.899Z,0
2017-12-28T05:16:05.876Z,0
2017-12-28T05:17:05.588Z,0
2017-12-28T05:18:05.298Z,0
2017-12-28T05:19:05.552Z,0
2017-12-28T05:20:05.526Z,0
2017-12-28T05:21:05.496Z,0
2017-12-28T05:22:06.004Z,0
2017-12-28T05:23:05.724Z,0
2017-12-28T05:24:05.706Z,0
2017-12-28T05:25:05.931Z,0
2017-12-28T05:26:05.384Z,0
2017-12-28T05:27:05.883Z,0
2017-12-28T05:28:05.339Z,0
2017-12-28T05:29:05.580Z,0
2017-12-28T05:30:05.825Z,0
2017-12-28T05:31:05.269Z,0
2017-12-28T05:32:05.513Z,0
2017-12-28T05:33:05.486Z,0
2017-12-28T05:34:05.482Z,0
2017-12-28T05:35:05.708Z,0
2017-12-28T05:36:05.161Z,0
2017-12-28T05:37:05.402Z,0
2017-12-28T05:38:05.641Z,0
2017-12-28T05:39:05.353Z,0
2017-12-28T05:40:05.594Z,0
2017-12-28T05:41:05.306Z,0
2017-12-28T05:42:05.274Z,0
2017-12-28T05:43:05.258Z,0
2017-12-28T05:44:05.236Z,0
2017-12-28T05:45:05.215Z,0
2017-12-28T05:46:05.196Z,0
2017-12-28T05:47:04.642Z,0
2017-12-28T05:48:04.884Z,0
2017-12-28T05:49:05.382Z,0
2017-12-28T05:50:04.846Z,0
2017-12-28T05:51:04.811Z,0
2017-12-28T05:52:04.527Z,0
2017-12-28T05:53:04.768Z,0
2017-12-28T05:54:05.274Z,0
2017-12-28T05:55:04.458Z,0
2017-12-28T05:56:05.220Z,0
2017-12-28T05:57:04.942Z,0
2017-12-28T05:58:04.650Z,0
2017-12-28T05:59:04.918Z,0
2017-12-28T06:00:04.872Z,0
2017-12-28T06:01:04.864Z,0
2017-12-28T06:02:05.085Z,0
2017-12-28T06:03:04.544Z,0
2017-12-28T06:04:04.790Z,0
2017-12-28T06:05:04.815Z,0
2017-12-28T06:06:04.742Z,0
2017-12-28T06:07:04.450Z,0
2017-12-28T06:08:04.698Z,0
2017-12-28T06:09:04.490Z,0
2017-12-28T06:10:04.123Z,0
2017-12-28T06:11:04.356Z,0
2017-12-28T06:12:04.872Z,0
2017-12-28T06:13:04.583Z,0
2017-12-28T06:14:04.289Z,0
2017-12-28T06:15:04.529Z,0
2017-12-28T06:16:04.990Z,0
2017-12-28T06:17:04.222Z,0
2017-12-28T06:18:04.732Z,0
2017-12-28T06:19:04.448Z,0
2017-12-28T06:20:04.415Z,0
2017-12-28T06:21:04.135Z,0
2017-12-28T06:22:04.379Z,0
2017-12-28T06:23:04.085Z,0
2017-12-28T06:24:04.062Z,0
2017-12-28T06:25:04.566Z,0
2017-12-28T06:26:04.286Z,0
2017-12-28T06:27:04.256Z,0
2017-12-28T06:28:04.228Z,0
2017-12-28T06:29:04.212Z,0
2017-12-28T06:30:03.927Z,0
2017-12-28T06:31:03.639Z,0
2017-12-28T06:32:03.624Z,0
2017-12-28T06:33:03.862Z,0
2017-12-28T06:34:03.845Z,0
2017-12-28T06:35:03.815Z,0
2017-12-28T06:36:03.791Z,0
2017-12-28T06:37:04.034Z,0
2017-12-28T06:38:03.745Z,0
2017-12-28T06:39:03.456Z,0
2017-12-28T06:40:03.962Z,0
2017-12-28T06:41:03.942Z,0
2017-12-28T06:42:04.188Z,0
2017-12-28T06:43:03.892Z,0
2017-12-28T06:44:03.609Z,0
2017-12-28T06:45:03.853Z,0
2017-12-28T06:46:04.090Z,0
2017-12-28T06:47:03.538Z,0
2017-12-28T06:48:03.787Z,0
2017-12-28T06:49:03.495Z,0
2017-12-28T06:50:03.740Z,0
2017-12-28T06:51:03.992Z,0
2017-12-28T06:52:03.956Z,0
2017-12-28T06:53:03.406Z,0
2017-12-28T06:54:03.126Z,0
2017-12-28T06:55:03.628Z,0
2017-12-28T06:56:03.341Z,0
2017-12-28T06:57:03.577Z,0
2017-12-28T06:58:03.295Z,0
2017-12-28T06:59:03.272Z,0
2017-12-28T07:00:03.249Z,0
2017-12-28T07:01:03.275Z,0
2017-12-28T07:02:03.203Z,0
2017-12-28T07:03:03.443Z,0
2017-12-28T07:04:03.154Z,0
2017-12-28T07:05:03.658Z,0
2017-12-28T07:06:02.860Z,4
2017-12-28T07:07:03.090Z,4
2017-12-28T07:08:03.070Z,4
2017-12-28T07:09:03.579Z,0
2017-12-28T07:10:03.547Z,4
2017-12-28T07:11:03.546Z,4
2017-12-28T07:12:03.501Z,4
2017-12-28T07:13:03.480Z,8
2017-12-28T07:14:02.668Z,8
2017-12-28T07:15:03.171Z,8
2017-12-28T07:16:02.890Z,12
2017-12-28T07:17:03.393Z,12
2017-12-28T07:18:03.101Z,16
2017-12-28T07:19:02.821Z,20
2017-12-28T07:20:03.065Z,24
2017-12-28T07:21:02.772Z,28
2017-12-28T07:22:03.284Z,28
2017-12-28T07:23:02.988Z,32
2017-12-28T07:24:02.713Z,36
2017-12-28T07:25:02.419Z,44
2017-12-28T07:26:02.930Z,48
2017-12-28T07:27:02.631Z,52
2017-12-28T07:28:03.133Z,60
2017-12-28T07:29:02.862Z,64
2017-12-28T07:30:02.833Z,68
2017-12-28T07:31:02.283Z,76
2017-12-28T07:32:03.045Z,84
2017-12-28T07:33:02.508Z,88
2017-12-28T07:34:02.477Z,96
2017-12-28T07:35:02.982Z,108
2017-12-28T07:36:02.964Z,116
2017-12-28T07:37:02.676Z,124
2017-12-28T07:38:02.652Z,136
2017-12-28T07:39:02.630Z,144
2017-12-28T07:40:02.346Z,156
2017-12-28T07:41:02.841Z,164
2017-12-28T07:42:02.827Z,176
2017-12-28T07:43:02.802Z,184
2017-12-28T07:44:02.250Z,200
2017-12-28T07:45:02.490Z,220
2017-12-28T07:46:02.478Z,244
2017-12-28T07:47:02.454Z,268
2017-12-28T07:48:02.684Z,292
2017-12-28T07:49:02.410Z,316
2017-12-28T07:50:02.381Z,340
2017-12-28T07:51:02.091Z,360
2017-12-28T07:52:02.331Z,380
2017-12-28T07:53:02.569Z,396
2017-12-28T07:54:02.284Z,416
2017-12-28T07:55:02.262Z,440
2017-12-28T07:56:02.240Z,460
2017-12-28T07:57:02.223Z,480
2017-12-28T07:58:02.205Z,500
2017-12-28T07:59:01.913Z,512
2017-12-28T08:00:01.886Z,536
2017-12-28T08:01:02.412Z,560
2017-12-28T08:02:01.575Z,588
2017-12-28T08:03:01.817Z,612
2017-12-28T08:04:02.057Z,628
2017-12-28T08:05:02.303Z,652
2017-12-28T08:06:01.752Z,672
2017-12-28T08:07:02.249Z,696
2017-12-28T08:08:01.963Z,720
2017-12-28T08:09:01.945Z,752
2017-12-28T08:10:01.930Z,780
2017-12-28T08:11:01.366Z,808
2017-12-28T08:12:01.622Z,844
2017-12-28T08:13:01.852Z,888
2017-12-28T08:14:01.831Z,932
2017-12-28T08:15:02.064Z,980
2017-12-28T08:16:02.243Z,1024
2017-12-28T08:17:01.237Z,1064
2017-12-28T08:18:01.212Z,1104
2017-12-28T08:19:01.723Z,1140
2017-12-28T08:20:01.693Z,1184
2017-12-28T08:21:01.929Z,1216
2017-12-28T08:22:01.912Z,1256
2017-12-28T08:23:01.367Z,1292
2017-12-28T08:24:01.342Z,1332
2017-12-28T08:25:01.311Z,1372
2017-12-28T08:26:01.549Z,1408
2017-12-28T08:27:01.282Z,1444
2017-12-28T08:28:01.779Z,1472
2017-12-28T08:29:01.220Z,1488
2017-12-28T08:30:01.723Z,1500
2017-12-28T08:31:01.443Z,1504
2017-12-28T08:32:01.149Z,1512
2017-12-28T08:33:01.134Z,1516
2017-12-28T08:34:01.376Z,1528
2017-12-28T08:35:01.089Z,1540
2017-12-28T08:36:01.056Z,1548
2017-12-28T08:37:00.776Z,1572
2017-12-28T08:38:01.286Z,1592
2017-12-28T08:39:00.986Z,1612
2017-12-28T08:40:00.971Z,1620
2017-12-28T08:41:01.217Z,1632
2017-12-28T08:42:01.189Z,1704
2017-12-28T08:43:01.166Z,1756
2017-12-28T08:44:01.199Z,1652
2017-12-28T08:45:01.383Z,1652
2017-12-28T08:46:01.096Z,1620
2017-12-28T08:47:00.808Z,1616
2017-12-28T08:48:00.784Z,1620
2017-12-28T08:49:01.036Z,1620
2017-12-28T08:50:00.738Z,1676
2017-12-28T08:51:00.989Z,1664
2017-12-28T08:52:01.012Z,1680
2017-12-28T08:53:00.936Z,1744
2017-12-28T08:54:00.664Z,1800
2017-12-28T08:55:01.154Z,1864
2017-12-28T08:56:00.342Z,1864
2017-12-28T08:57:00.585Z,1960
2017-12-28T08:58:00.822Z,2000
2017-12-28T08:59:00.796Z,2016
2017-12-28T09:00:00.514Z,2028
2017-12-28T09:01:00.490Z,2076
2017-12-28T09:02:00.721Z,2108
2017-12-28T09:03:00.447Z,2128
2017-12-28T09:04:00.426Z,2104
2017-12-28T09:05:00.930Z,2128
2017-12-28T09:06:00.904Z,2152
2017-12-28T09:07:00.353Z,2180
2017-12-28T09:08:00.068Z,2200
2017-12-28T09:09:00.307Z,2244
2017-12-28T09:10:00.552Z,2276
2017-12-28T09:11:00.552Z,2320
2017-12-28T09:12:00.262Z,2356
2017-12-28T09:13:00.232Z,2380
2017-12-28T09:14:00.211Z,2440
2017-12-28T09:15:00.190Z,2604
2017-12-28T09:16:00.435Z,2516
2017-12-28T09:17:00.206Z,2576
2017-12-28T09:18:00.386Z,2808
2017-12-28T09:19:00.375Z,2756
2017-12-28T09:20:00.348Z,2796
2017-12-28T09:21:00.062Z,2752
2017-12-28T09:22:00.305Z,2756
2017-12-28T09:22:59.995Z,2788
2017-12-28T09:23:59.977Z,2816
2017-12-28T09:25:00.484Z,2820
2017-12-28T09:26:00.212Z,2864
2017-12-28T09:26:59.919Z,2872
2017-12-28T09:28:00.153Z,2928
2017-12-28T09:29:00.409Z,3024
2017-12-28T09:29:59.582Z,3092
2017-12-28T09:30:59.837Z,3208
2017-12-28T09:31:59.810Z,3312
2017-12-28T09:32:59.790Z,3368
2017-12-28T09:33:59.759Z,3464
2017-12-28T09:34:59.996Z,3708
2017-12-28T09:35:59.711Z,4360
2017-12-28T09:36:59.970Z,4688
2017-12-28T09:38:00.193Z,4696
2017-12-28T09:38:59.652Z,4516
2017-12-28T09:39:59.384Z,4508
2017-12-28T09:40:59.872Z,4264
2017-12-28T09:42:00.114Z,4092
2017-12-28T09:42:59.561Z,4116
2017-12-28T09:43:59.834Z,4164
2017-12-28T09:44:59.775Z,4116
2017-12-28T09:45:59.506Z,4156
2017-12-28T09:46:59.749Z,4220
2017-12-28T09:47:59.710Z,4184
2017-12-28T09:48:59.698Z,4072
2017-12-28T09:49:59.387Z,4096
2017-12-28T09:50:59.635Z,4556
2017-12-28T09:51:59.677Z,5088
2017-12-28T09:52:59.343Z,5560
2017-12-28T09:53:59.838Z,5528
2017-12-28T09:54:59.290Z,5332
2017-12-28T09:55:59.538Z,5420
2017-12-28T09:56:59.506Z,5800
2017-12-28T09:57:59.218Z,6288
2017-12-28T09:58:59.456Z,6308
2017-12-28T09:59:59.440Z,6840
2017-12-28T10:00:58.898Z,6224
2017-12-28T10:01:59.134Z,6452
2017-12-28T10:02:59.400Z,7332
2017-12-28T10:03:59.364Z,7448
2017-12-28T10:04:58.817Z,7776
2017-12-28T10:05:59.341Z,8276
2017-12-28T10:06:59.312Z,8216
2017-12-28T10:07:59.019Z,8100
2017-12-28T10:08:59.549Z,8276
2017-12-28T10:09:59.514Z,8048
2017-12-28T10:10:59.241Z,7712
2017-12-28T10:11:59.241Z,7828
2017-12-28T10:12:58.917Z,7788
2017-12-28T10:13:59.185Z,7672
2017-12-28T10:14:58.881Z,7668
2017-12-28T10:15:59.598Z,4528
2017-12-28T10:16:59.377Z,10816
2017-12-28T10:17:58.826Z,10220
2017-12-28T10:18:59.062Z,9632
2017-12-28T10:19:58.782Z,9116
2017-12-28T10:20:59.301Z,8000
2017-12-28T10:21:58.775Z,9624
2017-12-28T10:22:58.476Z,8056
2017-12-28T10:23:58.475Z,7256
2017-12-28T10:24:58.716Z,6512
2017-12-28T10:25:58.702Z,6556
2017-12-28T10:26:58.938Z,6380
2017-12-28T10:27:58.660Z,5840
2017-12-28T10:28:58.648Z,8160
2017-12-28T10:29:58.611Z,8000
2017-12-28T10:30:58.888Z,6768
2017-12-28T10:31:58.855Z,6252
2017-12-28T10:32:59.099Z,5860
2017-12-28T10:33:58.548Z,7044
2017-12-28T10:34:58.789Z,7916
2017-12-28T10:35:58.245Z,7888
2017-12-28T10:36:58.774Z,8060
2017-12-28T10:37:58.501Z,8064
2017-12-28T10:38:58.723Z,9440
2017-12-28T10:39:58.717Z,9416
2017-12-28T10:40:58.720Z,9156
2017-12-28T10:41:58.700Z,9588
2017-12-28T10:42:58.394Z,7672
2017-12-28T10:43:58.126Z,6948
2017-12-28T10:44:58.365Z,6500
2017-12-28T10:45:58.358Z,7400
2017-12-28T10:46:58.609Z,6364
2017-12-28T10:47:58.311Z,6192
2017-12-28T10:48:58.572Z,6960
2017-12-28T10:49:58.819Z,6772
2017-12-28T10:50:58.539Z,6440
2017-12-28T10:51:58.246Z,6688
2017-12-28T10:52:58.555Z,7472
2017-12-28T10:53:58.221Z,5260
2017-12-28T10:54:58.451Z,7644
2017-12-28T10:55:58.166Z,7376
2017-12-28T10:56:58.141Z,6284
2017-12-28T10:57:58.388Z,4632
2017-12-28T10:58:58.121Z,4620
2017-12-28T10:59:58.111Z,4580
2017-12-28T11:00:57.824Z,5132
2017-12-28T11:01:58.322Z,5752
2017-12-28T11:02:58.050Z,6980
2017-12-28T11:03:58.292Z,7112
2017-12-28T11:04:58.273Z,8272
2017-12-28T11:05:58.251Z,7428
2017-12-28T11:06:57.973Z,8260
2017-12-28T11:07:58.213Z,7392
2017-12-28T11:08:58.197Z,6448
2017-12-28T11:09:58.182Z,7396
2017-12-28T11:10:58.158Z,7848
2017-12-28T11:11:57.878Z,7540
2017-12-28T11:12:57.860Z,9032
2017-12-28T11:13:58.107Z,10276
2017-12-28T11:14:57.824Z,11004
2017-12-28T11:15:57.811Z,12784
2017-12-28T11:16:57.790Z,13456
2017-12-28T11:17:57.775Z,12188
2017-12-28T11:18:57.493Z,11028
2017-12-28T11:19:58.009Z,10612
2017-12-28T11:20:57.758Z,10828
2017-12-28T11:21:57.976Z,7220
2017-12-28T11:22:57.951Z,7076
2017-12-28T11:23:57.671Z,8076
2017-12-28T11:24:57.653Z,6760
2017-12-28T11:25:57.958Z,9156
2017-12-28T11:26:57.651Z,5764
2017-12-28T11:27:57.603Z,6952
2017-12-28T11:28:57.583Z,7040
2017-12-28T11:29:57.565Z,7564
2017-12-28T11:30:57.815Z,6040
2017-12-28T11:31:57.803Z,5848
2017-12-28T11:32:57.515Z,6548
2017-12-28T11:33:57.764Z,7052
2017-12-28T11:34:57.742Z,5984
2017-12-28T11:35:57.464Z,5440
2017-12-28T11:36:57.452Z,5736
2017-12-28T11:37:57.691Z,5280
2017-12-28T11:39:57.931Z,4152
2017-12-28T11:40:57.932Z,4600
2017-12-28T11:41:57.383Z,5020
2017-12-28T11:42:57.635Z,4676
2017-12-28T11:43:57.336Z,4892
2017-12-28T11:44:57.582Z,6100
2017-12-28T11:45:57.830Z,6608
2017-12-28T11:46:57.521Z,5980
2017-12-28T11:47:57.248Z,7760
2017-12-28T11:48:57.515Z,8068
2017-12-28T11:49:57.487Z,8060
2017-12-28T11:50:57.707Z,8032
2017-12-28T11:51:57.424Z,6972
2017-12-28T11:52:57.672Z,5900
2017-12-28T11:53:57.418Z,6208
2017-12-28T11:54:57.404Z,7104
2017-12-28T11:55:57.107Z,7984
2017-12-28T11:56:56.804Z,6508
2017-12-28T11:57:57.042Z,4548
2017-12-28T11:58:57.288Z,3928
2017-12-28T11:59:57.036Z,3376
2017-12-28T12:00:57.268Z,3572
2017-12-28T12:01:56.970Z,3504
2017-12-28T12:02:56.949Z,3776
2017-12-28T12:03:56.946Z,4776
2017-12-28T12:04:57.442Z,5360
2017-12-28T12:05:56.633Z,4016
2017-12-28T12:06:56.605Z,3544
2017-12-28T12:07:56.863Z,3324
2017-12-28T12:08:57.104Z,4776
2017-12-28T12:09:57.071Z,5652
2017-12-28T12:10:57.322Z,5612
2017-12-28T12:11:56.770Z,5304
2017-12-28T12:12:57.024Z,5344
2017-12-28T12:13:57.007Z,4876
2017-12-28T12:14:56.443Z,4220
2017-12-28T12:15:57.100Z,5264
2017-12-28T12:16:56.666Z,7156
2017-12-28T12:17:56.684Z,7808
2017-12-28T12:18:56.398Z,14272
2017-12-28T12:19:56.934Z,17056
2017-12-28T12:20:56.660Z,16480
2017-12-28T12:21:56.828Z,15488
2017-12-28T12:22:56.816Z,17376
2017-12-28T12:23:56.864Z,18304
2017-12-28T12:24:56.514Z,16928
2017-12-28T12:25:57.017Z,16608
2017-12-28T12:26:56.473Z,16416
2017-12-28T12:27:56.204Z,15584
2017-12-28T12:28:56.439Z,15040
2017-12-28T12:29:56.688Z,15904
2017-12-28T12:30:56.412Z,16448
2017-12-28T12:31:56.651Z,15680
2017-12-28T12:32:56.913Z,9040
2017-12-28T12:33:56.632Z,14816
2017-12-28T12:34:56.614Z,14304
2017-12-28T12:35:56.900Z,6232
2017-12-28T12:36:56.678Z,17472
2017-12-28T12:37:56.307Z,17088
2017-12-28T12:38:56.292Z,9540
2017-12-28T12:39:56.537Z,17088
2017-12-28T12:40:56.263Z,9636
2017-12-28T12:41:56.507Z,6940
2017-12-28T12:42:56.996Z,5280
2017-12-28T12:43:55.960Z,5220
2017-12-28T12:44:56.254Z,7696
2017-12-28T12:45:56.198Z,5632
2017-12-28T12:46:56.462Z,4416
2017-12-28T12:47:56.168Z,4832
2017-12-28T12:48:56.417Z,5940
2017-12-28T12:49:56.404Z,5808
2017-12-28T12:50:56.117Z,6668
2017-12-28T12:51:56.109Z,7240
2017-12-28T12:52:56.365Z,7044
2017-12-28T12:53:56.075Z,6812
2017-12-28T12:54:56.338Z,6012
2017-12-28T12:55:56.364Z,5364
2017-12-28T12:56:56.289Z,4180
2017-12-28T12:57:56.307Z,4132
2017-12-28T12:58:55.997Z,3956
2017-12-28T12:59:56.261Z,3896
2017-12-28T13:00:55.966Z,3288
2017-12-28T13:01:56.492Z,2840
2017-12-28T13:02:56.190Z,3624
2017-12-28T13:03:56.182Z,3320
2017-12-28T13:04:55.943Z,3344
2017-12-28T13:05:56.399Z,3024
2017-12-28T13:06:55.860Z,2840
2017-12-28T13:07:56.122Z,2944
2017-12-28T13:08:55.825Z,7488
2017-12-28T13:09:56.331Z,7228
2017-12-28T13:10:56.318Z,5104
2017-12-28T13:11:55.767Z,3840
2017-12-28T13:12:56.024Z,3508
2017-12-28T13:13:55.740Z,4060
2017-12-28T13:14:55.713Z,4904
2017-12-28T13:15:55.433Z,4544
2017-12-28T13:16:55.417Z,4300
2017-12-28T13:17:55.923Z,4452
2017-12-28T13:18:55.903Z,5420
2017-12-28T13:19:55.884Z,6128
2017-12-28T13:20:55.605Z,13504
2017-12-28T13:21:55.851Z,7588
2017-12-28T13:22:56.094Z,4504
2017-12-28T13:23:55.811Z,3124
2017-12-28T13:24:56.059Z,2564
2017-12-28T13:25:55.783Z,2844
2017-12-28T13:26:55.752Z,9672
2017-12-28T13:27:55.219Z,3756
2017-12-28T13:28:55.726Z,3180
2017-12-28T13:29:55.169Z,8636
2017-12-28T13:30:55.418Z,5232
2017-12-28T13:31:55.393Z,8332
2017-12-28T13:32:55.379Z,2956
2017-12-28T13:33:55.623Z,3292
2017-12-28T13:34:55.343Z,9260
2017-12-28T13:35:55.853Z,9864
2017-12-28T13:36:55.789Z,9728
2017-12-28T13:37:55.815Z,9336
2017-12-28T13:38:55.273Z,9512
2017-12-28T13:39:55.785Z,5016
2017-12-28T13:41:09.940Z,10176
2017-12-28T13:41:55.213Z,6064
2017-12-28T13:42:55.199Z,10572
2017-12-28T13:43:55.853Z,10712
2017-12-28T13:44:55.857Z,10324
2017-12-28T13:45:55.150Z,9648
2017-12-28T13:46:55.069Z,9136
2017-12-28T13:47:55.125Z,8780
2017-12-28T13:48:55.095Z,8136
2017-12-28T13:49:55.355Z,5940
2017-12-28T13:50:55.590Z,5148
2017-12-28T13:51:55.315Z,3328
2017-12-28T13:52:54.768Z,2880
2017-12-28T13:53:55.539Z,3004
2017-12-28T13:54:55.001Z,3316
2017-12-28T13:55:54.977Z,3216
2017-12-28T13:56:54.973Z,2760
2017-12-28T13:57:54.681Z,3136
2017-12-28T13:58:54.672Z,4004
2017-12-28T13:59:54.915Z,4556
2017-12-28T14:00:55.424Z,4344
2017-12-28T14:01:55.416Z,4208
2017-12-28T14:02:55.120Z,4324
2017-12-28T14:03:54.838Z,3568